createdAt,value
2017-02-03T00:00:12.604Z,21.51
2017-02-03T00:00:27.199Z,21.53
2017-02-03T00:00:41.724Z,21.56
2017-02-03T00:00:56.272Z,21.4
2017-02-03T00:01:10.801Z,21.46
2017-02-03T00:01:25.355Z,21.48
2017-02-03T00:01:39.980Z,21.46
2017-02-03T00:01:54.531Z,21.43
2017-02-03T00:02:09.056Z,21.41
2017-02-03T00:02:23.597Z,21.37
2017-02-03T00:02:38.186Z,21.43
2017-02-03T00:02:52.753Z,21.41
2017-02-03T00:03:07.247Z,21.41
2017-02-03T00:03:21.778Z,21.45
2017-02-03T00:03:36.254Z,21.41
2017-02-03T00:03:50.813Z,21.38
2017-02-03T00:04:05.391Z,21.38
2017-02-03T00:04:19.914Z,21.38
2017-02-03T00:04:34.444Z,21.34
2017-02-03T00:04:48.974Z,21.37
2017-02-03T00:05:03.750Z,21.41
2017-02-03T00:05:18.268Z,21.43
2017-02-03T00:05:32.841Z,21.48
2017-02-03T00:05:47.363Z,21.43
2017-02-03T00:06:01.862Z,21.53
2017-02-03T00:06:16.408Z,21.41
2017-02-03T00:06:31.006Z,21.56
2017-02-03T00:06:45.575Z,21.59
2017-02-03T00:07:00.119Z,21.55
2017-02-03T00:07:14.674Z,21.53
2017-02-03T00:07:29.244Z,21.53
2017-02-03T00:07:43.760Z,21.58
2017-02-03T00:07:58.532Z,21.58
2017-02-03T00:08:13.101Z,21.53
2017-02-03T00:08:27.696Z,21.52
2017-02-03T00:08:42.235Z,21.53
2017-02-03T00:08:56.820Z,21.53
2017-02-03T00:09:11.417Z,21.48
2017-02-03T00:09:25.999Z,21.46
2017-02-03T00:09:40.532Z,21.51
2017-02-03T00:09:55.078Z,21.53
2017-02-03T00:10:09.629Z,21.49
2017-02-03T00:10:24.184Z,21.48
2017-02-03T00:10:38.775Z,21.56
2017-02-03T00:10:53.319Z,21.58
2017-02-03T00:11:07.834Z,21.52
2017-02-03T00:11:22.386Z,21.58
2017-02-03T00:11:36.987Z,21.51
2017-02-03T00:11:51.502Z,21.52
2017-02-03T00:12:06.099Z,21.49
2017-02-03T00:12:20.676Z,21.53
2017-02-03T00:12:35.188Z,21.53
2017-02-03T00:12:49.790Z,21.43
2017-02-03T00:13:04.402Z,21.46
2017-02-03T00:13:18.904Z,21.53
2017-02-03T00:13:33.506Z,21.52
2017-02-03T00:13:48.052Z,21.52
2017-02-03T00:14:02.671Z,21.52
2017-02-03T00:14:17.252Z,21.49
2017-02-03T00:14:31.800Z,21.56
2017-02-03T00:14:46.386Z,21.58
2017-02-03T00:15:00.919Z,21.61
2017-02-03T00:15:15.477Z,21.61
2017-02-03T00:15:30.040Z,21.62
2017-02-03T00:15:44.595Z,21.62
2017-02-03T00:15:59.144Z,21.61
2017-02-03T00:16:13.662Z,21.67
2017-02-03T00:16:28.184Z,21.61
2017-02-03T00:16:42.659Z,21.59
2017-02-03T00:16:57.214Z,21.62
2017-02-03T00:17:11.711Z,21.62
2017-02-03T00:17:26.235Z,21.61
2017-02-03T00:17:40.783Z,21.67
2017-02-03T00:17:55.307Z,21.66
2017-02-03T00:18:09.796Z,21.67
2017-02-03T00:18:24.291Z,21.64
2017-02-03T00:18:38.848Z,21.64
2017-02-03T00:18:53.406Z,21.64
2017-02-03T00:19:07.955Z,21.64
2017-02-03T00:19:22.496Z,21.73
2017-02-03T00:19:37.046Z,21.74
2017-02-03T00:19:51.680Z,21.71
2017-02-03T00:20:06.213Z,21.71
2017-02-03T00:20:21.019Z,21.71
2017-02-03T00:20:35.609Z,21.71
2017-02-03T00:20:50.166Z,21.77
2017-02-03T00:21:04.778Z,21.74
2017-02-03T00:21:19.355Z,21.71
2017-02-03T00:21:33.925Z,21.74
2017-02-03T00:21:48.447Z,21.78
2017-02-03T00:22:03.017Z,21.66
2017-02-03T00:22:17.595Z,21.66
2017-02-03T00:22:32.160Z,21.66
2017-02-03T00:22:46.765Z,21.59
2017-02-03T00:23:01.320Z,21.62
2017-02-03T00:23:15.891Z,21.59
2017-02-03T00:23:30.524Z,21.56
2017-02-03T00:23:45.077Z,21.56
2017-02-03T00:23:59.638Z,21.52
2017-02-03T00:24:14.225Z,21.45
2017-02-03T00:24:28.749Z,21.46
2017-02-03T00:24:43.310Z,21.48
2017-02-03T00:24:57.899Z,21.38
2017-02-03T00:25:12.473Z,21.37
2017-02-03T00:25:27.064Z,21.41
2017-02-03T00:25:41.617Z,21.4
2017-02-03T00:25:56.178Z,21.36
2017-02-03T00:26:10.753Z,21.37
2017-02-03T00:26:25.318Z,21.41
2017-02-03T00:26:39.895Z,21.46
2017-02-03T00:26:54.444Z,21.4
2017-02-03T00:27:09.004Z,21.4
2017-02-03T00:27:23.538Z,21.4
2017-02-03T00:27:38.083Z,21.45
2017-02-03T00:27:52.620Z,21.48
2017-02-03T00:28:07.134Z,21.41
2017-02-03T00:28:21.637Z,21.51
2017-02-03T00:28:36.154Z,21.43
2017-02-03T00:28:50.729Z,21.51
2017-02-03T00:29:05.347Z,21.55
2017-02-03T00:29:19.865Z,21.43
2017-02-03T00:29:34.340Z,21.51
2017-02-03T00:29:48.866Z,21.51
2017-02-03T00:30:03.434Z,21.4
2017-02-03T00:30:17.953Z,21.46
2017-02-03T00:30:32.502Z,21.43
2017-02-03T00:30:47.070Z,21.37
2017-02-03T00:31:01.662Z,21.38
2017-02-03T00:31:16.181Z,21.38
2017-02-03T00:31:30.765Z,21.36
2017-02-03T00:31:45.340Z,21.37
2017-02-03T00:31:59.900Z,21.27
2017-02-03T00:32:14.458Z,21.25
2017-02-03T00:32:29.036Z,21.34
2017-02-03T00:32:43.543Z,21.27
2017-02-03T00:32:58.150Z,21.27
2017-02-03T00:33:12.652Z,21.33
2017-02-03T00:33:27.185Z,21.28
2017-02-03T00:33:41.762Z,21.3
2017-02-03T00:33:56.327Z,21.25
2017-02-03T00:34:10.864Z,21.27
2017-02-03T00:34:25.413Z,21.28
2017-02-03T00:34:39.974Z,21.34
2017-02-03T00:34:54.517Z,21.31
2017-02-03T00:35:09.112Z,21.3
2017-02-03T00:35:23.820Z,21.27
2017-02-03T00:35:38.359Z,21.27
2017-02-03T00:35:52.892Z,21.28
2017-02-03T00:36:07.429Z,21.23
2017-02-03T00:36:21.974Z,21.27
2017-02-03T00:36:36.573Z,21.27
2017-02-03T00:36:51.113Z,21.34
2017-02-03T00:37:05.666Z,21.31
2017-02-03T00:37:20.194Z,21.34
2017-02-03T00:37:34.751Z,21.27
2017-02-03T00:37:49.269Z,21.36
2017-02-03T00:38:03.890Z,21.33
2017-02-03T00:38:18.469Z,21.36
2017-02-03T00:38:33.009Z,21.38
2017-02-03T00:38:47.539Z,21.31
2017-02-03T00:39:02.076Z,21.34
2017-02-03T00:39:16.594Z,21.31
2017-02-03T00:39:31.141Z,21.23
2017-02-03T00:39:45.653Z,21.4
2017-02-03T00:40:00.182Z,21.31
2017-02-03T00:40:14.726Z,21.31
2017-02-03T00:40:29.271Z,21.4
2017-02-03T00:40:43.835Z,21.33
2017-02-03T00:40:58.389Z,21.23
2017-02-03T00:41:12.954Z,21.41
2017-02-03T00:41:27.496Z,21.34
2017-02-03T00:41:42.026Z,21.27
2017-02-03T00:41:56.575Z,21.36
2017-02-03T00:42:11.180Z,21.38
2017-02-03T00:42:25.746Z,21.37
2017-02-03T00:42:40.258Z,21.41
2017-02-03T00:42:54.761Z,21.38
2017-02-03T00:43:09.279Z,21.43
2017-02-03T00:43:23.855Z,21.37
2017-02-03T00:43:38.387Z,21.45
2017-02-03T00:43:52.906Z,21.36
2017-02-03T00:44:07.448Z,21.34
2017-02-03T00:44:21.977Z,21.37
2017-02-03T00:44:36.558Z,21.37
2017-02-03T00:44:51.110Z,21.33
2017-02-03T00:45:05.694Z,21.38
2017-02-03T00:45:20.359Z,21.34
2017-02-03T00:45:34.875Z,21.34
2017-02-03T00:45:49.415Z,21.36
2017-02-03T00:46:04.000Z,21.38
2017-02-03T00:46:18.536Z,21.34
2017-02-03T00:46:33.110Z,21.41
2017-02-03T00:46:47.670Z,21.31
2017-02-03T00:47:02.194Z,21.33
2017-02-03T00:47:16.742Z,21.38
2017-02-03T00:47:31.255Z,21.41
2017-02-03T00:47:45.765Z,21.33
2017-02-03T00:48:00.501Z,21.25
2017-02-03T00:48:15.035Z,21.27
2017-02-03T00:48:29.584Z,21.36
2017-02-03T00:48:44.116Z,21.31
2017-02-03T00:48:58.663Z,21.36
2017-02-03T00:49:13.178Z,21.41
2017-02-03T00:49:27.751Z,21.34
2017-02-03T00:49:42.299Z,21.38
2017-02-03T00:49:56.816Z,21.31
2017-02-03T00:50:11.357Z,21.25
2017-02-03T00:50:26.139Z,21.33
2017-02-03T00:50:40.710Z,21.34
2017-02-03T00:50:55.248Z,21.34
2017-02-03T00:51:09.784Z,21.38
2017-02-03T00:51:24.357Z,21.38
2017-02-03T00:51:38.868Z,21.36
2017-02-03T00:51:53.388Z,21.41
2017-02-03T00:52:07.922Z,21.4
2017-02-03T00:52:22.529Z,21.34
2017-02-03T00:52:37.109Z,21.45
2017-02-03T00:52:51.594Z,21.43
2017-02-03T00:53:06.144Z,21.46
2017-02-03T00:53:20.727Z,21.51
2017-02-03T00:53:35.271Z,21.45
2017-02-03T00:53:49.868Z,21.45
2017-02-03T00:54:04.426Z,21.48
2017-02-03T00:54:18.974Z,21.4
2017-02-03T00:54:33.483Z,21.48
2017-02-03T00:54:47.987Z,21.34
2017-02-03T00:55:02.531Z,21.4
2017-02-03T00:55:17.074Z,21.38
2017-02-03T00:55:31.595Z,21.4
2017-02-03T00:55:46.215Z,21.37
2017-02-03T00:56:00.743Z,21.36
2017-02-03T00:56:15.247Z,21.25
2017-02-03T00:56:29.791Z,21.36
2017-02-03T00:56:44.333Z,21.37
2017-02-03T00:56:58.964Z,21.33
2017-02-03T00:57:13.517Z,21.37
2017-02-03T00:57:28.079Z,21.28
2017-02-03T00:57:42.596Z,21.28
2017-02-03T00:57:57.188Z,21.28
2017-02-03T00:58:11.719Z,21.27
2017-02-03T00:58:26.246Z,21.23
2017-02-03T00:58:40.773Z,21.3
2017-02-03T00:58:55.355Z,21.25
2017-02-03T00:59:09.868Z,21.12
2017-02-03T00:59:24.406Z,21.22
2017-02-03T00:59:38.949Z,21.12
2017-02-03T00:59:53.470Z,21.12
2017-02-03T01:00:08.018Z,21.18
2017-02-03T01:00:22.626Z,21.23
2017-02-03T01:00:37.160Z,21.22
2017-02-03T01:00:51.726Z,21.23
2017-02-03T01:01:06.296Z,21.18
2017-02-03T01:01:20.862Z,21.25
2017-02-03T01:01:35.427Z,21.19
2017-02-03T01:01:50.007Z,21.19
2017-02-03T01:02:04.549Z,21.22
2017-02-03T01:02:19.114Z,21.21
2017-02-03T01:02:33.666Z,21.28
2017-02-03T01:02:48.152Z,21.28
2017-02-03T01:03:02.681Z,21.33
2017-02-03T01:03:17.226Z,21.22
2017-02-03T01:03:31.752Z,21.23
2017-02-03T01:03:46.288Z,21.28
2017-02-03T01:04:00.824Z,21.28
2017-02-03T01:04:15.413Z,21.3
2017-02-03T01:04:30.013Z,21.23
2017-02-03T01:04:44.538Z,21.31
2017-02-03T01:04:59.102Z,21.23
2017-02-03T01:05:13.668Z,21.28
2017-02-03T01:05:28.436Z,21.25
2017-02-03T01:05:42.970Z,21.36
2017-02-03T01:05:57.485Z,21.33
2017-02-03T01:06:12.087Z,21.27
2017-02-03T01:06:26.647Z,21.3
2017-02-03T01:06:41.208Z,21.33
2017-02-03T01:06:55.798Z,21.31
2017-02-03T01:07:10.302Z,21.33
2017-02-03T01:07:24.853Z,21.36
2017-02-03T01:07:39.451Z,21.4
2017-02-03T01:07:53.970Z,21.31
2017-02-03T01:08:08.520Z,21.37
2017-02-03T01:08:23.096Z,21.36
2017-02-03T01:08:37.663Z,21.34
2017-02-03T01:08:52.196Z,21.4
2017-02-03T01:09:06.708Z,21.37
2017-02-03T01:09:21.334Z,21.4
2017-02-03T01:09:35.893Z,21.33
2017-02-03T01:09:50.451Z,21.4
2017-02-03T01:10:05.064Z,21.38
2017-02-03T01:10:19.577Z,21.34
2017-02-03T01:10:34.175Z,21.37
2017-02-03T01:10:48.700Z,21.48
2017-02-03T01:11:03.264Z,21.41
2017-02-03T01:11:17.829Z,21.45
2017-02-03T01:11:32.361Z,21.45
2017-02-03T01:11:46.902Z,21.46
2017-02-03T01:12:01.440Z,21.55
2017-02-03T01:12:16.046Z,21.59
2017-02-03T01:12:30.881Z,21.62
2017-02-03T01:12:45.438Z,21.61
2017-02-03T01:12:59.971Z,21.61
2017-02-03T01:13:14.533Z,21.62
2017-02-03T01:13:29.093Z,21.62
2017-02-03T01:13:43.651Z,21.64
2017-02-03T01:13:58.185Z,21.64
2017-02-03T01:14:12.757Z,21.64
2017-02-03T01:14:27.314Z,21.68
2017-02-03T01:14:41.840Z,21.68
2017-02-03T01:14:56.447Z,21.68
2017-02-03T01:15:11.048Z,21.74
2017-02-03T01:15:25.572Z,21.78
2017-02-03T01:15:40.386Z,21.76
2017-02-03T01:15:54.943Z,21.73
2017-02-03T01:16:09.471Z,21.77
2017-02-03T01:16:24.020Z,21.76
2017-02-03T01:16:38.655Z,21.85
2017-02-03T01:16:53.178Z,21.85
2017-02-03T01:17:07.743Z,21.78
2017-02-03T01:17:22.244Z,21.85
2017-02-03T01:17:36.783Z,21.82
2017-02-03T01:17:51.333Z,21.8
2017-02-03T01:18:05.901Z,21.74
2017-02-03T01:18:20.463Z,21.8
2017-02-03T01:18:35.044Z,21.85
2017-02-03T01:18:49.554Z,21.85
2017-02-03T01:19:04.063Z,21.9
2017-02-03T01:19:18.820Z,21.78
2017-02-03T01:19:33.358Z,21.78
2017-02-03T01:19:47.907Z,21.85
2017-02-03T01:20:02.409Z,21.89
2017-02-03T01:20:16.925Z,21.83
2017-02-03T01:20:31.527Z,21.82
2017-02-03T01:20:46.333Z,21.82
2017-02-03T01:21:00.881Z,21.83
2017-02-03T01:21:15.393Z,21.92
2017-02-03T01:21:29.931Z,21.85
2017-02-03T01:21:44.415Z,21.9
2017-02-03T01:21:58.975Z,21.89
2017-02-03T01:22:13.464Z,21.89
2017-02-03T01:22:28.108Z,21.9
2017-02-03T01:22:42.695Z,21.82
2017-02-03T01:22:57.267Z,21.85
2017-02-03T01:23:11.856Z,21.9
2017-02-03T01:23:26.394Z,21.86
2017-02-03T01:23:40.972Z,21.9
2017-02-03T01:23:55.499Z,21.85
2017-02-03T01:24:10.071Z,21.89
2017-02-03T01:24:24.695Z,21.86
2017-02-03T01:24:39.215Z,21.92
2017-02-03T01:24:53.754Z,21.82
2017-02-03T01:25:08.342Z,21.89
2017-02-03T01:25:22.885Z,21.86
2017-02-03T01:25:37.481Z,21.83
2017-02-03T01:25:52.047Z,21.78
2017-02-03T01:26:06.576Z,21.8
2017-02-03T01:26:21.170Z,21.73
2017-02-03T01:26:35.925Z,21.78
2017-02-03T01:26:50.494Z,21.73
2017-02-03T01:27:05.057Z,21.73
2017-02-03T01:27:19.658Z,21.76
2017-02-03T01:27:34.229Z,21.77
2017-02-03T01:27:48.784Z,21.83
2017-02-03T01:28:03.368Z,21.86
2017-02-03T01:28:17.928Z,21.86
2017-02-03T01:28:32.473Z,21.85
2017-02-03T01:28:46.991Z,21.89
2017-02-03T01:29:01.579Z,21.83
2017-02-03T01:29:16.133Z,21.83
2017-02-03T01:29:30.667Z,21.9
2017-02-03T01:29:45.216Z,21.85
2017-02-03T01:29:59.787Z,21.85
2017-02-03T01:30:14.363Z,21.7
2017-02-03T01:30:28.970Z,21.74
2017-02-03T01:30:43.472Z,21.76
2017-02-03T01:30:58.057Z,21.78
2017-02-03T01:31:12.647Z,21.74
2017-02-03T01:31:27.205Z,21.62
2017-02-03T01:31:41.768Z,21.58
2017-02-03T01:31:56.291Z,21.62
2017-02-03T01:32:10.861Z,21.56
2017-02-03T01:32:25.370Z,21.52
2017-02-03T01:32:39.982Z,21.45
2017-02-03T01:32:54.534Z,21.48
2017-02-03T01:33:09.115Z,21.49
2017-02-03T01:33:23.713Z,21.45
2017-02-03T01:33:38.299Z,21.43
2017-02-03T01:33:52.860Z,21.45
2017-02-03T01:34:07.454Z,21.37
2017-02-03T01:34:22.030Z,21.38
2017-02-03T01:34:36.575Z,21.34
2017-02-03T01:34:51.146Z,21.43
2017-02-03T01:35:05.739Z,21.4
2017-02-03T01:35:20.267Z,21.45
2017-02-03T01:35:34.807Z,21.41
2017-02-03T01:35:49.637Z,21.36
2017-02-03T01:36:04.233Z,21.37
2017-02-03T01:36:18.787Z,21.36
2017-02-03T01:36:33.369Z,21.38
2017-02-03T01:36:47.870Z,21.37
2017-02-03T01:37:02.481Z,21.36
2017-02-03T01:37:17.007Z,21.38
2017-02-03T01:37:31.600Z,21.36
2017-02-03T01:37:46.135Z,21.33
2017-02-03T01:38:00.687Z,21.34
2017-02-03T01:38:15.237Z,21.34
2017-02-03T01:38:29.790Z,21.33
2017-02-03T01:38:44.358Z,21.38
2017-02-03T01:38:58.972Z,21.38
2017-02-03T01:39:13.603Z,21.37
2017-02-03T01:39:28.133Z,21.36
2017-02-03T01:39:42.684Z,21.38
2017-02-03T01:39:57.268Z,21.38
2017-02-03T01:40:11.887Z,21.21
2017-02-03T01:40:26.477Z,21.33
2017-02-03T01:40:40.992Z,21.31
2017-02-03T01:40:55.591Z,21.27
2017-02-03T01:41:10.121Z,21.21
2017-02-03T01:41:24.717Z,21.34
2017-02-03T01:41:39.306Z,21.3
2017-02-03T01:41:53.835Z,21.23
2017-02-03T01:42:08.424Z,21.3
2017-02-03T01:42:23.017Z,21.27
2017-02-03T01:42:37.536Z,21.3
2017-02-03T01:42:52.107Z,21.28
2017-02-03T01:43:06.657Z,21.3
2017-02-03T01:43:21.206Z,21.28
2017-02-03T01:43:35.761Z,21.22
2017-02-03T01:43:50.265Z,21.27
2017-02-03T01:44:04.822Z,21.3
2017-02-03T01:44:19.378Z,21.16
2017-02-03T01:44:33.913Z,21.22
2017-02-03T01:44:48.475Z,21.21
2017-02-03T01:45:03.022Z,21.18
2017-02-03T01:45:17.568Z,21.22
2017-02-03T01:45:32.079Z,21.19
2017-02-03T01:45:46.616Z,21.21
2017-02-03T01:46:01.234Z,21.21
2017-02-03T01:46:15.810Z,21.19
2017-02-03T01:46:30.373Z,21.21
2017-02-03T01:46:44.946Z,21.12
2017-02-03T01:46:59.455Z,21.16
2017-02-03T01:47:13.938Z,21.09
2017-02-03T01:47:28.484Z,21.18
2017-02-03T01:47:43.065Z,21.18
2017-02-03T01:47:57.689Z,21.12
2017-02-03T01:48:12.261Z,21.13
2017-02-03T01:48:26.773Z,21.18
2017-02-03T01:48:41.353Z,21.16
2017-02-03T01:48:55.955Z,21.15
2017-02-03T01:49:10.480Z,21.06
2017-02-03T01:49:24.975Z,21.04
2017-02-03T01:49:39.534Z,21.13
2017-02-03T01:49:54.115Z,21.06
2017-02-03T01:50:08.697Z,21.06
2017-02-03T01:50:23.243Z,21.09
2017-02-03T01:50:37.796Z,21.03
2017-02-03T01:50:52.577Z,21.11
2017-02-03T01:51:07.153Z,21.08
2017-02-03T01:51:21.707Z,21.09
2017-02-03T01:51:36.239Z,21.06
2017-02-03T01:51:50.769Z,21.12
2017-02-03T01:52:05.291Z,21.16
2017-02-03T01:52:19.849Z,21.13
2017-02-03T01:52:34.379Z,21.13
2017-02-03T01:52:48.947Z,21.15
2017-02-03T01:53:03.393Z,21.27
2017-02-03T01:53:17.920Z,21.18
2017-02-03T01:53:32.496Z,21.27
2017-02-03T01:53:47.088Z,21.27
2017-02-03T01:54:01.669Z,21.23
2017-02-03T01:54:16.217Z,21.3
2017-02-03T01:54:30.777Z,21.3
2017-02-03T01:54:45.294Z,21.33
2017-02-03T01:54:59.820Z,21.25
2017-02-03T01:55:14.302Z,21.25
2017-02-03T01:55:28.850Z,21.23
2017-02-03T01:55:43.356Z,21.23
2017-02-03T01:55:57.944Z,21.23
2017-02-03T01:56:12.465Z,21.25
2017-02-03T01:56:27.015Z,21.27
2017-02-03T01:56:41.569Z,21.27
2017-02-03T01:56:56.137Z,21.23
2017-02-03T01:57:10.660Z,21.21
2017-02-03T01:57:25.158Z,21.22
2017-02-03T01:57:39.677Z,21.25
2017-02-03T01:57:54.214Z,21.3
2017-02-03T01:58:08.746Z,21.23
2017-02-03T01:58:23.292Z,21.19
2017-02-03T01:58:37.783Z,21.21
2017-02-03T01:58:52.297Z,21.12
2017-02-03T01:59:06.815Z,21.12
2017-02-03T01:59:21.329Z,21.11
2017-02-03T01:59:35.899Z,21.25
2017-02-03T01:59:50.512Z,21.22
2017-02-03T02:00:05.036Z,21.21
2017-02-03T02:00:19.635Z,21.21
2017-02-03T02:00:34.160Z,21.13
2017-02-03T02:00:48.655Z,21.21
2017-02-03T02:01:03.230Z,21.11
2017-02-03T02:01:17.791Z,21.22
2017-02-03T02:01:32.346Z,21.06
2017-02-03T02:01:46.974Z,21.09
2017-02-03T02:02:01.548Z,21.13
2017-02-03T02:02:16.094Z,21.12
2017-02-03T02:02:30.703Z,21.19
2017-02-03T02:02:45.154Z,21.21
2017-02-03T02:02:59.674Z,21.13
2017-02-03T02:03:14.184Z,21.18
2017-02-03T02:03:28.731Z,21.15
2017-02-03T02:03:43.269Z,21.12
2017-02-03T02:03:57.759Z,21.19
2017-02-03T02:04:12.266Z,21.15
2017-02-03T02:04:26.822Z,21.16
2017-02-03T02:04:41.349Z,21.21
2017-02-03T02:04:55.942Z,21.15
2017-02-03T02:05:10.516Z,21.15
2017-02-03T02:05:25.017Z,21.16
2017-02-03T02:05:39.602Z,21.16
2017-02-03T02:05:54.145Z,21.22
2017-02-03T02:06:08.876Z,21.08
2017-02-03T02:06:23.415Z,21.16
2017-02-03T02:06:37.895Z,21.11
2017-02-03T02:06:52.401Z,21.16
2017-02-03T02:07:06.939Z,21.13
2017-02-03T02:07:21.483Z,21.21
2017-02-03T02:07:36.043Z,21.15
2017-02-03T02:07:50.564Z,21.12
2017-02-03T02:08:05.132Z,21.15
2017-02-03T02:08:19.710Z,21.22
2017-02-03T02:08:34.216Z,21.15
2017-02-03T02:08:48.735Z,21.11
2017-02-03T02:09:03.807Z,21.19
2017-02-03T02:09:18.360Z,21.16
2017-02-03T02:09:32.901Z,21.13
2017-02-03T02:09:47.491Z,21.13
2017-02-03T02:10:02.033Z,21.15
2017-02-03T02:10:16.580Z,21.11
2017-02-03T02:10:31.196Z,21.19
2017-02-03T02:10:45.727Z,21.11
2017-02-03T02:11:00.304Z,21.25
2017-02-03T02:11:14.821Z,21.11
2017-02-03T02:11:29.374Z,21.25
2017-02-03T02:11:43.910Z,21.21
2017-02-03T02:11:58.349Z,21.09
2017-02-03T02:12:12.859Z,21.27
2017-02-03T02:12:27.368Z,21.19
2017-02-03T02:12:41.895Z,21.25
2017-02-03T02:12:56.452Z,21.3
2017-02-03T02:13:11.269Z,21.19
2017-02-03T02:13:25.847Z,21.27
2017-02-03T02:13:40.386Z,21.19
2017-02-03T02:13:54.857Z,21.21
2017-02-03T02:14:09.392Z,21.21
2017-02-03T02:14:23.943Z,21.25
2017-02-03T02:14:38.540Z,21.16
2017-02-03T02:14:53.158Z,21.23
2017-02-03T02:15:07.656Z,21.12
2017-02-03T02:15:22.170Z,21.11
2017-02-03T02:15:36.733Z,21.11
2017-02-03T02:15:51.280Z,21.16
2017-02-03T02:16:05.817Z,21.11
2017-02-03T02:16:21.053Z,21.21
2017-02-03T02:16:35.614Z,21.21
2017-02-03T02:16:50.156Z,21.21
2017-02-03T02:17:04.665Z,21.25
2017-02-03T02:17:19.227Z,21.3
2017-02-03T02:17:33.743Z,21.33
2017-02-03T02:17:48.280Z,21.23
2017-02-03T02:18:02.822Z,21.34
2017-02-03T02:18:17.343Z,21.28
2017-02-03T02:18:31.825Z,21.33
2017-02-03T02:18:46.366Z,21.28
2017-02-03T02:19:00.919Z,21.37
2017-02-03T02:19:15.505Z,21.38
2017-02-03T02:19:30.008Z,21.31
2017-02-03T02:19:44.496Z,21.31
2017-02-03T02:19:58.984Z,21.31
2017-02-03T02:20:13.537Z,21.3
2017-02-03T02:20:28.029Z,21.36
2017-02-03T02:20:42.570Z,21.25
2017-02-03T02:20:57.118Z,21.23
2017-02-03T02:21:11.828Z,21.37
2017-02-03T02:21:26.409Z,21.34
2017-02-03T02:21:40.975Z,21.38
2017-02-03T02:21:55.562Z,21.38
2017-02-03T02:22:10.124Z,21.41
2017-02-03T02:22:24.656Z,21.31
2017-02-03T02:22:39.205Z,21.36
2017-02-03T02:22:53.748Z,21.34
2017-02-03T02:23:08.287Z,21.38
2017-02-03T02:23:22.878Z,21.38
2017-02-03T02:23:37.436Z,21.23
2017-02-03T02:23:51.984Z,21.41
2017-02-03T02:24:06.547Z,21.31
2017-02-03T02:24:21.078Z,21.28
2017-02-03T02:24:35.585Z,21.28
2017-02-03T02:24:50.110Z,21.31
2017-02-03T02:25:04.615Z,21.4
2017-02-03T02:25:19.171Z,21.38
2017-02-03T02:25:33.715Z,21.28
2017-02-03T02:25:48.272Z,21.36
2017-02-03T02:26:02.850Z,21.3
2017-02-03T02:26:17.372Z,21.22
2017-02-03T02:26:31.873Z,21.25
2017-02-03T02:26:46.465Z,21.23
2017-02-03T02:27:01.001Z,21.3
2017-02-03T02:27:15.519Z,21.28
2017-02-03T02:27:30.047Z,21.23
2017-02-03T02:27:44.583Z,21.23
2017-02-03T02:27:59.086Z,21.28
2017-02-03T02:28:13.610Z,21.23
2017-02-03T02:28:28.110Z,21.3
2017-02-03T02:28:42.652Z,21.28
2017-02-03T02:28:57.166Z,21.3
2017-02-03T02:29:11.711Z,21.25
2017-02-03T02:29:26.236Z,21.27
2017-02-03T02:29:40.814Z,21.27
2017-02-03T02:29:55.332Z,21.27
2017-02-03T02:30:10.079Z,21.27
2017-02-03T02:30:24.634Z,21.3
2017-02-03T02:30:39.191Z,21.23
2017-02-03T02:30:53.716Z,21.25
2017-02-03T02:31:08.238Z,21.31
2017-02-03T02:31:22.764Z,21.36
2017-02-03T02:31:37.269Z,21.3
2017-02-03T02:31:51.806Z,21.3
2017-02-03T02:32:06.352Z,21.33
2017-02-03T02:32:20.927Z,21.37
2017-02-03T02:32:35.470Z,21.3
2017-02-03T02:32:49.987Z,21.28
2017-02-03T02:33:04.508Z,21.38
2017-02-03T02:33:19.061Z,21.33
2017-02-03T02:33:33.557Z,21.37
2017-02-03T02:33:48.049Z,21.41
2017-02-03T02:34:02.605Z,21.36
2017-02-03T02:34:17.157Z,21.34
2017-02-03T02:34:31.703Z,21.33
2017-02-03T02:34:46.237Z,21.34
2017-02-03T02:35:00.814Z,21.37
2017-02-03T02:35:15.333Z,21.31
2017-02-03T02:35:29.858Z,21.21
2017-02-03T02:35:44.428Z,21.33
2017-02-03T02:35:59.008Z,21.33
2017-02-03T02:36:13.728Z,21.31
2017-02-03T02:36:28.274Z,21.31
2017-02-03T02:36:42.793Z,21.34
2017-02-03T02:36:57.377Z,21.38
2017-02-03T02:37:11.948Z,21.28
2017-02-03T02:37:26.452Z,21.34
2017-02-03T02:37:40.983Z,21.28
2017-02-03T02:37:55.550Z,21.34
2017-02-03T02:38:10.029Z,21.25
2017-02-03T02:38:24.538Z,21.25
2017-02-03T02:38:39.034Z,21.33
2017-02-03T02:38:53.563Z,21.33
2017-02-03T02:39:08.091Z,21.21
2017-02-03T02:39:22.570Z,21.23
2017-02-03T02:39:37.081Z,21.23
2017-02-03T02:39:51.609Z,21.27
2017-02-03T02:40:06.143Z,21.3
2017-02-03T02:40:20.645Z,21.34
2017-02-03T02:40:35.236Z,21.23
2017-02-03T02:40:49.743Z,21.25
2017-02-03T02:41:04.232Z,21.22
2017-02-03T02:41:18.801Z,21.3
2017-02-03T02:41:33.328Z,21.23
2017-02-03T02:41:47.871Z,21.3
2017-02-03T02:42:02.400Z,21.3
2017-02-03T02:42:16.937Z,21.31
2017-02-03T02:42:31.493Z,21.27
2017-02-03T02:42:46.025Z,21.27
2017-02-03T02:43:00.545Z,21.25
2017-02-03T02:43:15.122Z,21.28
2017-02-03T02:43:29.673Z,21.25
2017-02-03T02:43:44.227Z,21.25
2017-02-03T02:43:58.695Z,21.22
2017-02-03T02:44:13.258Z,21.25
2017-02-03T02:44:27.798Z,21.25
2017-02-03T02:44:42.305Z,21.19
2017-02-03T02:44:56.820Z,21.27
2017-02-03T02:45:11.322Z,21.23
2017-02-03T02:45:25.826Z,21.22
2017-02-03T02:45:40.367Z,21.28
2017-02-03T02:45:54.905Z,21.23
2017-02-03T02:46:09.452Z,21.3
2017-02-03T02:46:23.991Z,21.3
2017-02-03T02:46:38.496Z,21.23
2017-02-03T02:46:52.989Z,21.28
2017-02-03T02:47:07.506Z,21.23
2017-02-03T02:47:22.027Z,21.22
2017-02-03T02:47:36.597Z,21.31
2017-02-03T02:47:51.123Z,21.31
2017-02-03T02:48:05.660Z,21.28
2017-02-03T02:48:20.187Z,21.27
2017-02-03T02:48:34.953Z,21.25
2017-02-03T02:48:50.369Z,21.3
2017-02-03T02:49:04.868Z,21.28
2017-02-03T02:49:19.372Z,21.28
2017-02-03T02:49:33.911Z,21.28
2017-02-03T02:49:48.434Z,21.27
2017-02-03T02:50:02.962Z,21.33
2017-02-03T02:50:17.490Z,21.28
2017-02-03T02:50:32.005Z,21.23
2017-02-03T02:50:46.553Z,21.3
2017-02-03T02:51:01.080Z,21.3
2017-02-03T02:51:15.622Z,21.34
2017-02-03T02:51:30.349Z,21.31
2017-02-03T02:51:44.893Z,21.34
2017-02-03T02:51:59.469Z,21.33
2017-02-03T02:52:13.992Z,21.33
2017-02-03T02:52:28.530Z,21.27
2017-02-03T02:52:43.035Z,21.28
2017-02-03T02:52:57.560Z,21.31
2017-02-03T02:53:12.055Z,21.36
2017-02-03T02:53:26.612Z,21.33
2017-02-03T02:53:41.168Z,21.31
2017-02-03T02:53:55.794Z,21.31
2017-02-03T02:54:10.294Z,21.3
2017-02-03T02:54:24.841Z,21.33
2017-02-03T02:54:39.370Z,21.3
2017-02-03T02:54:53.930Z,21.38
2017-02-03T02:55:08.486Z,21.36
2017-02-03T02:55:23.053Z,21.34
2017-02-03T02:55:37.556Z,21.28
2017-02-03T02:55:52.104Z,21.37
2017-02-03T02:56:06.622Z,21.3
2017-02-03T02:56:21.138Z,21.31
2017-02-03T02:56:35.632Z,21.34
2017-02-03T02:56:50.136Z,21.28
2017-02-03T02:57:04.669Z,21.28
2017-02-03T02:57:19.206Z,21.25
2017-02-03T02:57:33.696Z,21.3
2017-02-03T02:57:48.218Z,21.25
2017-02-03T02:58:02.746Z,21.31
2017-02-03T02:58:17.277Z,21.33
2017-02-03T02:58:31.851Z,21.31
2017-02-03T02:58:46.433Z,21.28
2017-02-03T02:59:01.001Z,21.33
2017-02-03T02:59:15.527Z,21.31
2017-02-03T02:59:30.046Z,21.23
2017-02-03T02:59:44.577Z,21.21
2017-02-03T02:59:59.152Z,21.25
2017-02-03T03:00:13.685Z,21.19
2017-02-03T03:00:28.226Z,21.18
2017-02-03T03:00:42.709Z,21.27
2017-02-03T03:00:57.234Z,21.19
2017-02-03T03:01:11.804Z,21.12
2017-02-03T03:01:26.290Z,21.13
2017-02-03T03:01:40.761Z,21.19
2017-02-03T03:01:55.335Z,21.11
2017-02-03T03:02:09.934Z,21.18
2017-02-03T03:02:24.465Z,21.12
2017-02-03T03:02:38.977Z,21.15
2017-02-03T03:02:53.512Z,21.13
2017-02-03T03:03:08.015Z,21.15
2017-02-03T03:03:22.515Z,21.12
2017-02-03T03:03:37.044Z,21.16
2017-02-03T03:03:51.625Z,21.16
2017-02-03T03:04:06.123Z,21.12
2017-02-03T03:04:20.649Z,21.12
2017-02-03T03:04:35.267Z,21.23
2017-02-03T03:04:49.843Z,21.12
2017-02-03T03:05:04.413Z,21.19
2017-02-03T03:05:18.947Z,21.08
2017-02-03T03:05:33.504Z,21.16
2017-02-03T03:05:48.043Z,21.15
2017-02-03T03:06:02.629Z,21.08
2017-02-03T03:06:17.170Z,21.16
2017-02-03T03:06:31.862Z,21.19
2017-02-03T03:06:46.422Z,21.12
2017-02-03T03:07:00.931Z,21.12
2017-02-03T03:07:15.419Z,21.15
2017-02-03T03:07:29.974Z,21.16
2017-02-03T03:07:44.491Z,21.18
2017-02-03T03:07:58.957Z,21.13